sensor_id;sensor_type;location;lat;lon;timestamp;noise_LAeq;noise_LA_min;noise_LA_max;noise_LA01;noise_LA95
72466;Laerm;60471;52.150;4.508;2024-01-30T00:02:20;69.08;43.58;87.94;;
72466;Laerm;60471;52.150;4.508;2024-01-30T00:04:46;69.15;45.02;87.90;;
72466;Laerm;60471;52.150;4.508;2024-01-30T00:07:12;69.06;46.51;87.61;;
72466;Laerm;60471;52.150;4.508;2024-01-30T00:09:39;69.12;43.19;87.64;;
72466;Laerm;60471;52.150;4.508;2024-01-30T00:12:06;69.12;43.47;88.62;;
72466;Laerm;60471;52.150;4.508;2024-01-30T00:14:32;68.85;43.09;86.73;;
72466;Laerm;60471;52.150;4.508;2024-01-30T00:16:59;68.96;42.36;86.64;;
72466;Laerm;60471;52.150;4.508;2024-01-30T00:19:25;69.39;44.75;88.82;;
72466;Laerm;60471;52.150;4.508;2024-01-30T00:21:51;69.01;42.89;88.10;;
72466;Laerm;60471;52.150;4.508;2024-01-30T00:24:17;68.85;41.12;86.65;;
72466;Laerm;60471;52.150;4.508;2024-01-30T00:26:43;69.00;43.81;87.63;;
72466;Laerm;60471;52.150;4.508;2024-01-30T00:29:10;68.96;44.64;88.45;;
72466;Laerm;60471;52.150;4.508;2024-01-30T00:31:36;68.93;42.18;87.62;;
72466;Laerm;60471;52.150;4.508;2024-01-30T00:34:02;68.80;43.58;88.23;;
72466;Laerm;60471;52.150;4.508;2024-01-30T00:36:29;69.07;43.41;86.34;;
72466;Laerm;60471;52.150;4.508;2024-01-30T00:38:56;68.99;43.93;88.42;;
72466;Laerm;60471;52.150;4.508;2024-01-30T00:41:22;69.05;42.73;86.98;;
72466;Laerm;60471;52.150;4.508;2024-01-30T00:43:48;69.26;42.73;88.28;;
72466;Laerm;60471;52.150;4.508;2024-01-30T00:46:14;68.94;43.14;86.55;;
72466;Laerm;60471;52.150;4.508;2024-01-30T00:48:41;68.86;42.79;87.49;;
72466;Laerm;60471;52.150;4.508;2024-01-30T00:51:07;69.07;41.87;88.46;;
72466;Laerm;60471;52.150;4.508;2024-01-30T00:53:33;68.96;42.58;89.15;;
72466;Laerm;60471;52.150;4.508;2024-01-30T00:55:59;69.09;42.56;87.80;;
72466;Laerm;60471;52.150;4.508;2024-01-30T00:58:25;69.10;40.57;89.10;;
72466;Laerm;60471;52.150;4.508;2024-01-30T01:00:52;68.99;41.03;87.98;;
72466;Laerm;60471;52.150;4.508;2024-01-30T01:03:18;68.88;40.27;86.68;;
72466;Laerm;60471;52.150;4.508;2024-01-30T01:05:44;69.08;41.66;88.66;;
72466;Laerm;60471;52.150;4.508;2024-01-30T01:08:10;69.02;39.85;88.60;;
72466;Laerm;60471;52.150;4.508;2024-01-30T01:10:36;69.28;41.22;87.64;;
72466;Laerm;60471;52.150;4.508;2024-01-30T01:13:03;68.90;40.22;86.86;;
72466;Laerm;60471;52.150;4.508;2024-01-30T01:15:29;69.19;40.90;89.13;;
72466;Laerm;60471;52.150;4.508;2024-01-30T01:17:55;69.07;41.50;88.26;;
72466;Laerm;60471;52.150;4.508;2024-01-30T01:20:21;69.00;40.53;86.97;;
72466;Laerm;60471;52.150;4.508;2024-01-30T01:22:48;69.15;40.96;86.70;;
72466;Laerm;60471;52.150;4.508;2024-01-30T01:25:14;69.15;41.08;89.29;;
72466;Laerm;60471;52.150;4.508;2024-01-30T01:27:41;68.87;42.50;87.04;;
72466;Laerm;60471;52.150;4.508;2024-01-30T01:30:10;68.83;39.90;87.46;;
72466;Laerm;60471;52.150;4.508;2024-01-30T01:32:37;68.84;41.16;86.74;;
72466;Laerm;60471;52.150;4.508;2024-01-30T01:35:04;69.02;42.13;87.41;;
72466;Laerm;60471;52.150;4.508;2024-01-30T01:37:33;69.04;42.02;87.96;;
72466;Laerm;60471;52.150;4.508;2024-01-30T01:40:00;68.93;41.64;88.49;;
72466;Laerm;60471;52.150;4.508;2024-01-30T01:42:26;69.25;41.58;89.94;;
72466;Laerm;60471;52.150;4.508;2024-01-30T01:44:52;68.87;42.12;87.82;;
72466;Laerm;60471;52.150;4.508;2024-01-30T01:47:18;69.39;42.39;88.63;;
72466;Laerm;60471;52.150;4.508;2024-01-30T01:49:44;69.33;41.17;86.93;;
72466;Laerm;60471;52.150;4.508;2024-01-30T01:52:11;68.97;40.72;87.87;;
72466;Laerm;60471;52.150;4.508;2024-01-30T01:54:37;69.14;43.46;89.27;;
72466;Laerm;60471;52.150;4.508;2024-01-30T01:57:04;69.30;41.20;87.17;;
72466;Laerm;60471;52.150;4.508;2024-01-30T01:59:30;68.88;40.49;87.36;;
72466;Laerm;60471;52.150;4.508;2024-01-30T02:01:57;68.84;38.91;86.48;;
72466;Laerm;60471;52.150;4.508;2024-01-30T02:04:23;68.95;39.00;87.46;;
72466;Laerm;60471;52.150;4.508;2024-01-30T02:06:49;68.92;41.51;88.22;;
72466;Laerm;60471;52.150;4.508;2024-01-30T02:09:16;68.90;40.47;86.47;;
72466;Laerm;60471;52.150;4.508;2024-01-30T02:11:42;68.96;40.28;89.72;;
72466;Laerm;60471;52.150;4.508;2024-01-30T02:14:08;68.85;40.90;89.00;;
72466;Laerm;60471;52.150;4.508;2024-01-30T02:16:34;69.03;42.48;87.60;;
72466;Laerm;60471;52.150;4.508;2024-01-30T02:19:01;68.88;41.32;88.09;;
72466;Laerm;60471;52.150;4.508;2024-01-30T02:21:27;68.76;40.70;88.32;;
72466;Laerm;60471;52.150;4.508;2024-01-30T02:23:54;68.92;41.50;88.85;;
72466;Laerm;60471;52.150;4.508;2024-01-30T02:26:21;69.00;42.45;86.55;;
72466;Laerm;60471;52.150;4.508;2024-01-30T02:28:48;68.94;41.26;87.42;;
72466;Laerm;60471;52.150;4.508;2024-01-30T02:31:14;68.89;41.37;89.14;;
72466;Laerm;60471;52.150;4.508;2024-01-30T02:33:40;69.34;42.91;86.55;;
72466;Laerm;60471;52.150;4.508;2024-01-30T02:36:06;68.87;44.25;87.48;;
72466;Laerm;60471;52.150;4.508;2024-01-30T02:38:33;69.18;40.58;87.96;;
72466;Laerm;60471;52.150;4.508;2024-01-30T02:40:59;69.35;41.23;88.31;;
72466;Laerm;60471;52.150;4.508;2024-01-30T02:43:25;69.44;42.28;90.48;;
72466;Laerm;60471;52.150;4.508;2024-01-30T02:45:51;68.89;43.14;85.72;;
72466;Laerm;60471;52.150;4.508;2024-01-30T02:48:18;69.28;44.20;87.91;;
72466;Laerm;60471;52.150;4.508;2024-01-30T02:50:44;69.25;43.06;88.46;;
72466;Laerm;60471;52.150;4.508;2024-01-30T02:53:10;69.02;42.82;86.41;;
72466;Laerm;60471;52.150;4.508;2024-01-30T02:55:36;69.09;43.70;87.51;;
72466;Laerm;60471;52.150;4.508;2024-01-30T02:58:03;68.84;40.92;87.21;;
72466;Laerm;60471;52.150;4.508;2024-01-30T03:00:29;69.22;41.13;87.53;;
72466;Laerm;60471;52.150;4.508;2024-01-30T03:02:55;69.31;43.43;87.97;;
72466;Laerm;60471;52.150;4.508;2024-01-30T03:05:21;69.11;45.07;86.94;;
72466;Laerm;60471;52.150;4.508;2024-01-30T03:07:47;69.19;44.46;88.06;;
72466;Laerm;60471;52.150;4.508;2024-01-30T03:10:14;69.10;43.86;87.38;;
72466;Laerm;60471;52.150;4.508;2024-01-30T03:12:40;69.14;43.89;87.53;;
72466;Laerm;60471;52.150;4.508;2024-01-30T03:15:06;68.85;42.77;88.32;;
72466;Laerm;60471;52.150;4.508;2024-01-30T03:17:33;68.85;43.85;87.18;;
72466;Laerm;60471;52.150;4.508;2024-01-30T03:19:59;68.83;42.59;88.14;;
72466;Laerm;60471;52.150;4.508;2024-01-30T03:22:25;69.23;44.91;89.24;;
72466;Laerm;60471;52.150;4.508;2024-01-30T03:24:51;69.13;44.02;87.79;;
72466;Laerm;60471;52.150;4.508;2024-01-30T03:27:17;68.99;45.69;87.03;;
72466;Laerm;60471;52.150;4.508;2024-01-30T03:29:44;69.11;45.72;89.95;;
72466;Laerm;60471;52.150;4.508;2024-01-30T03:32:10;68.95;44.67;86.47;;
72466;Laerm;60471;52.150;4.508;2024-01-30T03:34:36;69.02;45.32;86.86;;
72466;Laerm;60471;52.150;4.508;2024-01-30T03:37:02;69.25;47.08;88.52;;
72466;Laerm;60471;52.150;4.508;2024-01-30T03:39:30;69.17;47.12;87.97;;
72466;Laerm;60471;52.150;4.508;2024-01-30T03:41:56;69.15;46.05;88.19;;
72466;Laerm;60471;52.150;4.508;2024-01-30T03:44:22;68.96;44.94;86.98;;
72466;Laerm;60471;52.150;4.508;2024-01-30T03:46:49;68.85;45.60;87.31;;
72466;Laerm;60471;52.150;4.508;2024-01-30T03:49:15;69.13;45.91;87.15;;
72466;Laerm;60471;52.150;4.508;2024-01-30T03:51:41;68.76;46.56;86.94;;
72466;Laerm;60471;52.150;4.508;2024-01-30T03:54:07;69.01;45.85;88.22;;
72466;Laerm;60471;52.150;4.508;2024-01-30T03:56:34;68.89;47.12;87.47;;
72466;Laerm;60471;52.150;4.508;2024-01-30T03:59:00;69.05;45.92;86.85;;
72466;Laerm;60471;52.150;4.508;2024-01-30T04:01:28;69.14;47.37;88.59;;
72466;Laerm;60471;52.150;4.508;2024-01-30T04:03:54;69.16;47.58;87.82;;
72466;Laerm;60471;52.150;4.508;2024-01-30T04:06:21;69.14;49.20;86.94;;
72466;Laerm;60471;52.150;4.508;2024-01-30T04:08:47;69.33;48.44;87.66;;
72466;Laerm;60471;52.150;4.508;2024-01-30T04:11:13;69.27;49.27;88.65;;
72466;Laerm;60471;52.150;4.508;2024-01-30T04:13:39;69.23;48.86;87.56;;
72466;Laerm;60471;52.150;4.508;2024-01-30T04:16:06;69.36;48.24;87.53;;
72466;Laerm;60471;52.150;4.508;2024-01-30T04:18:32;69.08;49.86;86.73;;
72466;Laerm;60471;52.150;4.508;2024-01-30T04:21:00;69.20;47.81;87.77;;
72466;Laerm;60471;52.150;4.508;2024-01-30T04:23:26;69.04;49.07;85.77;;
72466;Laerm;60471;52.150;4.508;2024-01-30T04:25:52;69.28;49.98;87.11;;
72466;Laerm;60471;52.150;4.508;2024-01-30T04:28:18;69.33;50.76;88.05;;
72466;Laerm;60471;52.150;4.508;2024-01-30T04:30:44;69.53;51.21;87.60;;
72466;Laerm;60471;52.150;4.508;2024-01-30T04:33:11;69.27;50.79;88.51;;
72466;Laerm;60471;52.150;4.508;2024-01-30T04:35:37;69.21;51.14;89.27;;
72466;Laerm;60471;52.150;4.508;2024-01-30T04:38:03;69.18;52.18;86.58;;
72466;Laerm;60471;52.150;4.508;2024-01-30T04:40:30;69.17;51.89;88.88;;
72466;Laerm;60471;52.150;4.508;2024-01-30T04:42:56;69.35;50.95;88.79;;
72466;Laerm;60471;52.150;4.508;2024-01-30T04:45:22;69.01;52.03;86.61;;
72466;Laerm;60471;52.150;4.508;2024-01-30T04:47:48;69.11;52.58;88.91;;
72466;Laerm;60471;52.150;4.508;2024-01-30T04:50:14;69.13;51.80;88.06;;
72466;Laerm;60471;52.150;4.508;2024-01-30T04:52:41;68.99;52.36;90.33;;
72466;Laerm;60471;52.150;4.508;2024-01-30T04:55:07;69.15;52.83;87.33;;
72466;Laerm;60471;52.150;4.508;2024-01-30T04:57:33;69.30;52.86;87.45;;
72466;Laerm;60471;52.150;4.508;2024-01-30T05:00:00;69.20;52.06;87.16;;
72466;Laerm;60471;52.150;4.508;2024-01-30T05:02:27;69.09;53.09;87.25;;
72466;Laerm;60471;52.150;4.508;2024-01-30T05:04:53;69.30;53.78;88.06;;
72466;Laerm;60471;52.150;4.508;2024-01-30T05:07:19;69.18;52.24;89.08;;
72466;Laerm;60471;52.150;4.508;2024-01-30T05:09:45;69.13;53.77;87.73;;
72466;Laerm;60471;52.150;4.508;2024-01-30T05:12:11;69.15;52.14;87.58;;
72466;Laerm;60471;52.150;4.508;2024-01-30T05:14:38;69.24;53.90;87.95;;
72466;Laerm;60471;52.150;4.508;2024-01-30T05:17:04;69.13;52.86;87.18;;
72466;Laerm;60471;52.150;4.508;2024-01-30T05:19:30;69.30;53.29;88.22;;
72466;Laerm;60471;52.150;4.508;2024-01-30T05:21:56;69.20;53.84;87.48;;
72466;Laerm;60471;52.150;4.508;2024-01-30T05:24:22;69.39;54.51;88.01;;
72466;Laerm;60471;52.150;4.508;2024-01-30T05:26:49;69.30;54.21;87.90;;
72466;Laerm;60471;52.150;4.508;2024-01-30T05:29:17;69.12;53.30;87.61;;
72466;Laerm;60471;52.150;4.508;2024-01-30T05:31:43;69.43;54.00;86.93;;
72466;Laerm;60471;52.150;4.508;2024-01-30T05:34:09;69.33;53.85;89.17;;
72466;Laerm;60471;52.150;4.508;2024-01-30T05:36:35;69.38;54.91;88.20;;
72466;Laerm;60471;52.150;4.508;2024-01-30T05:39:02;69.23;54.22;89.04;;
72466;Laerm;60471;52.150;4.508;2024-01-30T05:41:28;69.30;54.62;88.84;;
72466;Laerm;60471;52.150;4.508;2024-01-30T05:43:54;69.34;54.89;86.60;;
72466;Laerm;60471;52.150;4.508;2024-01-30T05:46:21;69.33;53.49;90.99;;
72466;Laerm;60471;52.150;4.508;2024-01-30T05:48:47;69.37;54.93;87.52;;
72466;Laerm;60471;52.150;4.508;2024-01-30T05:51:13;69.13;53.11;87.64;;
72466;Laerm;60471;52.150;4.508;2024-01-30T05:53:40;69.35;53.98;88.72;;
72466;Laerm;60471;52.150;4.508;2024-01-30T05:56:06;69.01;52.98;85.99;;
72466;Laerm;60471;52.150;4.508;2024-01-30T05:58:32;69.35;55.07;86.84;;
72466;Laerm;60471;52.150;4.508;2024-01-30T06:00:59;69.27;53.97;87.60;;
72466;Laerm;60471;52.150;4.508;2024-01-30T06:03:25;69.53;54.17;88.21;;
72466;Laerm;60471;52.150;4.508;2024-01-30T06:05:51;69.41;55.24;88.02;;
72466;Laerm;60471;52.150;4.508;2024-01-30T06:08:18;69.32;54.31;87.49;;
72466;Laerm;60471;52.150;4.508;2024-01-30T06:10:44;69.56;55.81;87.56;;
72466;Laerm;60471;52.150;4.508;2024-01-30T06:13:10;69.44;55.28;88.52;;
72466;Laerm;60471;52.150;4.508;2024-01-30T06:15:36;69.27;53.33;86.91;;
72466;Laerm;60471;52.150;4.508;2024-01-30T06:18:03;69.43;55.23;87.26;;
72466;Laerm;60471;52.150;4.508;2024-01-30T06:20:29;69.50;55.05;87.94;;
72466;Laerm;60471;52.150;4.508;2024-01-30T06:22:55;69.77;54.16;87.63;;
72466;Laerm;60471;52.150;4.508;2024-01-30T06:25:21;69.37;54.86;87.25;;
72466;Laerm;60471;52.150;4.508;2024-01-30T06:27:48;69.39;55.52;88.38;;
72466;Laerm;60471;52.150;4.508;2024-01-30T06:30:14;69.62;54.50;89.11;;
72466;Laerm;60471;52.150;4.508;2024-01-30T06:32:41;69.44;55.72;87.75;;
72466;Laerm;60471;52.150;4.508;2024-01-30T06:35:08;69.32;54.92;87.10;;
72466;Laerm;60471;52.150;4.508;2024-01-30T06:37:34;69.23;54.42;87.48;;
72466;Laerm;60471;52.150;4.508;2024-01-30T06:40:00;69.21;55.18;87.01;;
72466;Laerm;60471;52.150;4.508;2024-01-30T06:42:27;69.46;55.45;88.75;;
72466;Laerm;60471;52.150;4.508;2024-01-30T06:44:53;69.24;56.49;86.41;;
72466;Laerm;60471;52.150;4.508;2024-01-30T06:47:19;69.37;54.71;89.70;;
72466;Laerm;60471;52.150;4.508;2024-01-30T06:49:45;69.39;54.37;88.35;;
72466;Laerm;60471;52.150;4.508;2024-01-30T06:52:12;69.49;55.35;88.33;;
72466;Laerm;60471;52.150;4.508;2024-01-30T06:54:38;69.58;55.97;88.47;;
72466;Laerm;60471;52.150;4.508;2024-01-30T06:57:05;69.40;54.48;89.88;;
72466;Laerm;60471;52.150;4.508;2024-01-30T06:59:37;68.97;55.95;88.60;;
72466;Laerm;60471;52.150;4.508;2024-01-30T07:02:12;68.93;55.10;88.02;;
72466;Laerm;60471;52.150;4.508;2024-01-30T07:04:38;69.44;54.94;87.38;;
72466;Laerm;60471;52.150;4.508;2024-01-30T07:07:05;69.20;55.03;86.74;;
72466;Laerm;60471;52.150;4.508;2024-01-30T07:09:31;69.17;54.53;88.83;;
72466;Laerm;60471;52.150;4.508;2024-01-30T07:11:58;69.17;54.42;87.61;;
72466;Laerm;60471;52.150;4.508;2024-01-30T07:14:25;69.45;55.98;88.59;;
72466;Laerm;60471;52.150;4.508;2024-01-30T07:16:51;69.44;54.84;90.01;;
72466;Laerm;60471;52.150;4.508;2024-01-30T07:19:17;69.29;54.55;89.67;;
72466;Laerm;60471;52.150;4.508;2024-01-30T07:21:43;69.53;55.01;88.07;;
72466;Laerm;60471;52.150;4.508;2024-01-30T07:24:10;69.41;56.01;87.84;;
72466;Laerm;60471;52.150;4.508;2024-01-30T07:26:36;69.30;54.73;87.92;;
72466;Laerm;60471;52.150;4.508;2024-01-30T07:29:02;69.38;54.69;87.64;;
72466;Laerm;60471;52.150;4.508;2024-01-30T07:31:29;69.33;54.72;87.63;;
72466;Laerm;60471;52.150;4.508;2024-01-30T07:33:55;69.48;54.47;88.77;;
72466;Laerm;60471;52.150;4.508;2024-01-30T07:36:21;69.53;53.83;90.02;;
72466;Laerm;60471;52.150;4.508;2024-01-30T07:38:47;69.15;53.16;88.05;;
72466;Laerm;60471;52.150;4.508;2024-01-30T07:41:14;69.44;54.49;88.25;;
72466;Laerm;60471;52.150;4.508;2024-01-30T07:43:40;69.79;52.83;88.79;;
72466;Laerm;60471;52.150;4.508;2024-01-30T07:46:06;69.62;53.99;88.87;;
72466;Laerm;60471;52.150;4.508;2024-01-30T07:48:33;69.17;53.80;87.32;;
72466;Laerm;60471;52.150;4.508;2024-01-30T07:51:00;68.94;51.79;86.91;;
72466;Laerm;60471;52.150;4.508;2024-01-30T07:53:26;69.37;53.98;87.69;;
72466;Laerm;60471;52.150;4.508;2024-01-30T07:55:52;69.36;54.88;88.06;;
72466;Laerm;60471;52.150;4.508;2024-01-30T07:58:18;69.55;54.26;88.13;;
72466;Laerm;60471;52.150;4.508;2024-01-30T08:00:45;69.11;54.02;87.90;;
72466;Laerm;60471;52.150;4.508;2024-01-30T08:03:11;69.04;53.47;87.86;;
72466;Laerm;60471;52.150;4.508;2024-01-30T08:05:38;69.35;55.00;87.11;;
72466;Laerm;60471;52.150;4.508;2024-01-30T08:08:05;69.49;53.18;87.34;;
72466;Laerm;60471;52.150;4.508;2024-01-30T08:10:31;69.33;54.17;89.08;;
72466;Laerm;60471;52.150;4.508;2024-01-30T08:12:57;69.15;53.85;87.18;;
72466;Laerm;60471;52.150;4.508;2024-01-30T08:15:24;69.39;53.30;87.46;;
72466;Laerm;60471;52.150;4.508;2024-01-30T08:17:50;69.07;54.15;85.71;;
72466;Laerm;60471;52.150;4.508;2024-01-30T08:20:21;68.89;53.53;88.94;;
72466;Laerm;60471;52.150;4.508;2024-01-30T08:22:47;69.45;54.74;86.81;;
72466;Laerm;60471;52.150;4.508;2024-01-30T08:25:14;69.47;53.87;87.80;;
72466;Laerm;60471;52.150;4.508;2024-01-30T08:27:40;69.58;53.28;88.88;;
72466;Laerm;60471;52.150;4.508;2024-01-30T08:30:07;69.28;54.62;87.71;;
72466;Laerm;60471;52.150;4.508;2024-01-30T08:32:34;69.29;53.89;87.66;;
72466;Laerm;60471;52.150;4.508;2024-01-30T08:35:00;69.43;53.53;88.84;;
72466;Laerm;60471;52.150;4.508;2024-01-30T08:37:29;69.34;52.55;88.49;;
72466;Laerm;60471;52.150;4.508;2024-01-30T08:39:56;69.15;52.11;87.71;;
72466;Laerm;60471;52.150;4.508;2024-01-30T08:42:22;69.41;53.10;88.34;;
72466;Laerm;60471;52.150;4.508;2024-01-30T08:44:49;69.19;51.86;89.36;;
72466;Laerm;60471;52.150;4.508;2024-01-30T08:47:17;69.26;53.41;87.30;;
72466;Laerm;60471;52.150;4.508;2024-01-30T08:49:44;69.24;51.82;88.43;;
72466;Laerm;60471;52.150;4.508;2024-01-30T08:52:11;69.36;54.06;87.61;;
72466;Laerm;60471;52.150;4.508;2024-01-30T08:54:37;69.24;54.26;86.56;;
72466;Laerm;60471;52.150;4.508;2024-01-30T08:57:04;69.39;55.07;88.08;;
72466;Laerm;60471;52.150;4.508;2024-01-30T08:59:30;69.21;53.22;88.26;;
72466;Laerm;60471;52.150;4.508;2024-01-30T09:01:56;69.52;54.09;87.15;;
72466;Laerm;60471;52.150;4.508;2024-01-30T09:04:25;69.03;53.00;87.17;;
72466;Laerm;60471;52.150;4.508;2024-01-30T09:06:51;69.40;52.26;88.09;;
72466;Laerm;60471;52.150;4.508;2024-01-30T09:09:17;69.36;54.21;87.21;;
72466;Laerm;60471;52.150;4.508;2024-01-30T09:11:44;69.64;53.12;89.38;;
72466;Laerm;60471;52.150;4.508;2024-01-30T09:14:10;69.61;53.36;88.36;;
72466;Laerm;60471;52.150;4.508;2024-01-30T09:16:36;69.59;53.79;87.77;;
72466;Laerm;60471;52.150;4.508;2024-01-30T09:19:02;69.38;53.45;87.60;;
72466;Laerm;60471;52.150;4.508;2024-01-30T09:21:28;69.38;53.10;86.49;;
72466;Laerm;60471;52.150;4.508;2024-01-30T09:24:02;69.60;51.98;89.85;;
72466;Laerm;60471;52.150;4.508;2024-01-30T09:26:31;69.60;53.84;87.46;;
72466;Laerm;60471;52.150;4.508;2024-01-30T09:28:57;69.60;53.35;88.11;;
72466;Laerm;60471;52.150;4.508;2024-01-30T09:31:24;69.66;53.95;86.99;;
72466;Laerm;60471;52.150;4.508;2024-01-30T09:33:50;69.85;54.55;88.73;;
72466;Laerm;60471;52.150;4.508;2024-01-30T09:36:17;70.38;55.97;89.23;;
72466;Laerm;60471;52.150;4.508;2024-01-30T09:38:45;70.01;55.41;87.77;;
72466;Laerm;60471;52.150;4.508;2024-01-30T09:41:12;69.87;53.35;89.15;;
72466;Laerm;60471;52.150;4.508;2024-01-30T09:43:39;70.16;53.82;89.89;;
72466;Laerm;60471;52.150;4.508;2024-01-30T09:46:12;69.92;53.91;87.65;;
72466;Laerm;60471;52.150;4.508;2024-01-30T09:48:41;69.90;55.22;87.98;;
72466;Laerm;60471;52.150;4.508;2024-01-30T09:51:09;70.34;54.36;89.06;;
72466;Laerm;60471;52.150;4.508;2024-01-30T09:53:37;70.33;53.81;89.26;;
72466;Laerm;60471;52.150;4.508;2024-01-30T09:56:05;70.15;52.51;89.67;;
72466;Laerm;60471;52.150;4.508;2024-01-30T09:58:31;70.45;54.28;88.60;;
72466;Laerm;60471;52.150;4.508;2024-01-30T10:00:58;70.42;56.23;88.29;;
72466;Laerm;60471;52.150;4.508;2024-01-30T10:03:24;70.02;53.74;88.99;;
72466;Laerm;60471;52.150;4.508;2024-01-30T10:05:52;70.11;54.24;89.01;;
72466;Laerm;60471;52.150;4.508;2024-01-30T10:08:19;70.12;53.95;87.33;;
72466;Laerm;60471;52.150;4.508;2024-01-30T10:10:47;70.14;53.25;87.96;;
72466;Laerm;60471;52.150;4.508;2024-01-30T10:13:13;70.02;53.88;88.36;;
72466;Laerm;60471;52.150;4.508;2024-01-30T10:15:39;70.02;53.41;88.65;;
72466;Laerm;60471;52.150;4.508;2024-01-30T10:18:06;69.98;53.83;88.27;;
72466;Laerm;60471;52.150;4.508;2024-01-30T10:20:34;70.00;53.47;87.39;;
72466;Laerm;60471;52.150;4.508;2024-01-30T10:23:00;69.95;53.98;88.18;;
72466;Laerm;60471;52.150;4.508;2024-01-30T10:25:26;69.62;54.02;87.91;;
72466;Laerm;60471;52.150;4.508;2024-01-30T10:27:53;69.78;54.48;87.16;;
72466;Laerm;60471;52.150;4.508;2024-01-30T10:30:22;69.79;53.24;88.01;;
72466;Laerm;60471;52.150;4.508;2024-01-30T10:32:49;69.69;54.82;89.29;;
72466;Laerm;60471;52.150;4.508;2024-01-30T10:35:15;69.87;53.44;87.72;;
72466;Laerm;60471;52.150;4.508;2024-01-30T10:37:44;69.72;54.72;87.52;;
72466;Laerm;60471;52.150;4.508;2024-01-30T10:40:14;69.68;53.32;87.38;;
72466;Laerm;60471;52.150;4.508;2024-01-30T10:42:43;69.80;53.34;87.56;;
72466;Laerm;60471;52.150;4.508;2024-01-30T10:45:14;69.74;55.13;87.58;;
72466;Laerm;60471;52.150;4.508;2024-01-30T10:47:49;69.39;54.84;89.11;;
72466;Laerm;60471;52.150;4.508;2024-01-30T10:50:16;69.78;54.20;87.64;;
72466;Laerm;60471;52.150;4.508;2024-01-30T10:52:42;69.97;54.76;87.77;;
72466;Laerm;60471;52.150;4.508;2024-01-30T10:55:10;70.10;55.63;88.72;;
72466;Laerm;60471;52.150;4.508;2024-01-30T10:57:37;69.83;54.18;88.36;;
72466;Laerm;60471;52.150;4.508;2024-01-30T11:00:11;69.85;54.79;88.20;;
72466;Laerm;60471;52.150;4.508;2024-01-30T11:02:41;69.73;54.70;89.31;;
72466;Laerm;60471;52.150;4.508;2024-01-30T11:05:09;69.83;54.89;87.02;;
72466;Laerm;60471;52.150;4.508;2024-01-30T11:07:35;69.90;55.48;87.75;;
72466;Laerm;60471;52.150;4.508;2024-01-30T11:10:03;70.03;54.84;87.00;;
72466;Laerm;60471;52.150;4.508;2024-01-30T11:12:32;70.19;57.21;87.42;;
72466;Laerm;60471;52.150;4.508;2024-01-30T11:15:07;69.95;55.00;87.77;;
72466;Laerm;60471;52.150;4.508;2024-01-30T11:17:51;69.44;54.30;86.78;;
72466;Laerm;60471;52.150;4.508;2024-01-30T11:20:29;69.96;55.19;87.92;;
72466;Laerm;60471;52.150;4.508;2024-01-30T11:22:58;69.97;55.74;87.92;;
72466;Laerm;60471;52.150;4.508;2024-01-30T11:25:25;70.17;53.98;88.41;;
72466;Laerm;60471;52.150;4.508;2024-01-30T11:27:54;69.87;54.68;88.42;;
72466;Laerm;60471;52.150;4.508;2024-01-30T11:30:31;69.83;54.34;87.70;;
72466;Laerm;60471;52.150;4.508;2024-01-30T11:35:35;70.22;54.94;90.17;;
72466;Laerm;60471;52.150;4.508;2024-01-30T11:38:03;70.24;54.65;88.53;;
72466;Laerm;60471;52.150;4.508;2024-01-30T11:40:31;69.94;54.30;88.89;;
72466;Laerm;60471;52.150;4.508;2024-01-30T11:42:59;69.83;53.60;87.90;;
72466;Laerm;60471;52.150;4.508;2024-01-30T11:45:27;69.80;54.22;87.49;;
72466;Laerm;60471;52.150;4.508;2024-01-30T11:47:54;69.82;54.57;87.59;;
72466;Laerm;60471;52.150;4.508;2024-01-30T11:50:21;70.00;53.83;89.32;;
72466;Laerm;60471;52.150;4.508;2024-01-30T11:52:48;70.02;54.83;87.19;;
72466;Laerm;60471;52.150;4.508;2024-01-30T11:55:15;70.05;53.17;88.18;;
72466;Laerm;60471;52.150;4.508;2024-01-30T11:57:41;69.82;52.73;88.21;;
72466;Laerm;60471;52.150;4.508;2024-01-30T12:00:15;69.71;53.81;88.55;;
72466;Laerm;60471;52.150;4.508;2024-01-30T12:02:42;69.83;54.16;87.06;;
72466;Laerm;60471;52.150;4.508;2024-01-30T12:05:10;69.90;53.47;87.41;;
72466;Laerm;60471;52.150;4.508;2024-01-30T12:07:36;69.89;52.97;87.54;;
72466;Laerm;60471;52.150;4.508;2024-01-30T12:10:02;69.79;53.60;86.66;;
72466;Laerm;60471;52.150;4.508;2024-01-30T12:12:29;69.83;53.45;87.30;;
72466;Laerm;60471;52.150;4.508;2024-01-30T12:14:56;69.91;52.49;87.49;;
72466;Laerm;60471;52.150;4.508;2024-01-30T12:17:34;69.60;53.19;87.76;;
72466;Laerm;60471;52.150;4.508;2024-01-30T12:22:37;69.79;53.99;89.05;;
72466;Laerm;60471;52.150;4.508;2024-01-30T12:25:08;69.60;54.08;88.43;;
72466;Laerm;60471;52.150;4.508;2024-01-30T12:27:38;69.93;53.98;88.04;;
72466;Laerm;60471;52.150;4.508;2024-01-30T12:30:10;69.64;53.79;88.64;;
72466;Laerm;60471;52.150;4.508;2024-01-30T12:32:39;69.63;53.93;87.66;;
72466;Laerm;60471;52.150;4.508;2024-01-30T12:35:10;69.63;53.71;86.80;;
72466;Laerm;60471;52.150;4.508;2024-01-30T12:37:37;69.78;53.97;88.17;;
72466;Laerm;60471;52.150;4.508;2024-01-30T12:40:03;69.72;52.88;87.79;;
72466;Laerm;60471;52.150;4.508;2024-01-30T12:42:30;69.69;54.75;88.56;;
72466;Laerm;60471;52.150;4.508;2024-01-30T12:45:00;69.75;52.37;87.64;;
72466;Laerm;60471;52.150;4.508;2024-01-30T12:47:27;69.87;53.55;87.14;;
72466;Laerm;60471;52.150;4.508;2024-01-30T12:49:53;69.72;52.29;87.79;;
72466;Laerm;60471;52.150;4.508;2024-01-30T12:52:21;69.87;52.50;90.54;;
72466;Laerm;60471;52.150;4.508;2024-01-30T12:54:49;69.84;54.37;88.33;;
72466;Laerm;60471;52.150;4.508;2024-01-30T12:57:16;69.66;52.90;87.32;;
72466;Laerm;60471;52.150;4.508;2024-01-30T12:59:46;69.42;53.88;87.11;;
72466;Laerm;60471;52.150;4.508;2024-01-30T13:02:14;69.57;53.24;86.88;;
72466;Laerm;60471;52.150;4.508;2024-01-30T13:04:42;69.68;53.50;86.84;;
72466;Laerm;60471;52.150;4.508;2024-01-30T13:07:08;69.76;52.88;87.65;;
72466;Laerm;60471;52.150;4.508;2024-01-30T13:09:35;69.83;54.22;87.75;;
72466;Laerm;60471;52.150;4.508;2024-01-30T13:12:01;69.61;53.27;86.50;;
72466;Laerm;60471;52.150;4.508;2024-01-30T13:14:27;69.72;53.13;86.96;;
72466;Laerm;60471;52.150;4.508;2024-01-30T13:16:53;69.66;52.67;87.31;;
72466;Laerm;60471;52.150;4.508;2024-01-30T13:19:20;69.44;52.85;85.96;;
72466;Laerm;60471;52.150;4.508;2024-01-30T13:21:46;69.74;54.34;88.36;;
72466;Laerm;60471;52.150;4.508;2024-01-30T13:24:14;69.65;53.65;86.69;;
72466;Laerm;60471;52.150;4.508;2024-01-30T13:26:42;69.76;54.14;87.62;;
72466;Laerm;60471;52.150;4.508;2024-01-30T13:29:09;69.65;53.88;87.24;;
72466;Laerm;60471;52.150;4.508;2024-01-30T13:31:36;69.75;55.27;87.68;;
72466;Laerm;60471;52.150;4.508;2024-01-30T13:34:02;69.69;51.90;87.78;;
72466;Laerm;60471;52.150;4.508;2024-01-30T13:36:28;69.68;52.93;86.68;;
72466;Laerm;60471;52.150;4.508;2024-01-30T13:38:55;69.71;52.90;89.69;;
72466;Laerm;60471;52.150;4.508;2024-01-30T13:41:21;69.75;54.14;87.07;;
72466;Laerm;60471;52.150;4.508;2024-01-30T13:43:48;69.59;52.88;88.19;;
72466;Laerm;60471;52.150;4.508;2024-01-30T13:46:15;69.76;53.00;88.23;;
72466;Laerm;60471;52.150;4.508;2024-01-30T13:48:41;69.69;53.73;88.07;;